createdAt,value
2018-12-19T00:00:37.979Z,133.57
2018-12-19T00:03:12.883Z,134.70
2018-12-19T00:05:47.181Z,129.43
2018-12-19T00:08:22.381Z,129.23
2018-12-19T00:10:56.977Z,132.37
2018-12-19T00:13:31.129Z,128.60
2018-12-19T00:16:06.480Z,125.60
2018-12-19T00:18:40.433Z,132.90
2018-12-19T00:21:14.791Z,127.73
2018-12-19T00:23:49.879Z,132.23
2018-12-19T00:26:24.311Z,133.13
2018-12-19T00:28:58.532Z,130.10
2018-12-19T00:31:32.942Z,130.03
2018-12-19T00:34:07.416Z,146.67
2018-12-19T00:36:41.738Z,142.73
2018-12-19T00:39:16.316Z,141.23
2018-12-19T00:41:51.261Z,142.90
2018-12-19T00:44:25.779Z,142.93
2018-12-19T00:47:00.419Z,139.77
2018-12-19T00:49:34.752Z,156.73
2018-12-19T00:52:09.090Z,158.73
2018-12-19T00:54:43.435Z,141.50
2018-12-19T00:57:17.550Z,146.43
2018-12-19T00:59:51.639Z,154.03
2018-12-19T01:02:26.239Z,156.43
2018-12-19T01:05:00.700Z,149.57
2018-12-19T01:07:35.420Z,155.80
2018-12-19T01:10:10.182Z,163.37
2018-12-19T01:12:44.577Z,155.60
2018-12-19T01:15:18.835Z,151.70
2018-12-19T01:17:53.205Z,174.23
2018-12-19T01:20:27.231Z,162.67
2018-12-19T01:23:01.842Z,162.00
2018-12-19T01:25:36.723Z,173.77
2018-12-19T01:28:11.146Z,171.60
2018-12-19T01:30:45.319Z,164.17
2018-12-19T01:33:19.826Z,174.73
2018-12-19T01:35:54.108Z,182.40
2018-12-19T01:38:28.367Z,165.83
2018-12-19T01:41:02.745Z,175.90
2018-12-19T01:43:37.208Z,178.83
2018-12-19T01:46:11.574Z,183.67
2018-12-19T01:48:45.598Z,172.50
2018-12-19T01:51:20.277Z,170.87
2018-12-19T02:06:38.707Z,150.13
2018-12-19T02:09:12.676Z,150.90
2018-12-19T02:11:47.726Z,167.13
2018-12-19T02:14:22.411Z,168.43
2018-12-19T02:16:56.660Z,157.10
2018-12-19T02:19:31.890Z,152.20
2018-12-19T02:22:06.251Z,155.47
2018-12-19T02:24:40.064Z,155.43
2018-12-19T02:27:14.262Z,142.50
2018-12-19T02:29:48.355Z,135.53
2018-12-19T02:32:22.727Z,136.83
2018-12-19T02:34:56.827Z,140.47
2018-12-19T02:37:30.998Z,145.70
2018-12-19T02:40:05.923Z,136.77
2018-12-19T02:42:40.560Z,131.20
2018-12-19T02:45:14.883Z,145.23
2018-12-19T02:47:49.258Z,131.73
2018-12-19T02:50:23.100Z,138.33
2018-12-19T02:52:57.180Z,124.73
2018-12-19T02:55:31.585Z,127.70
2018-12-19T02:58:06.666Z,119.37
2018-12-19T03:00:40.834Z,123.17
2018-12-19T03:03:14.891Z,121.23
2018-12-19T03:05:49.737Z,119.20
2018-12-19T03:08:23.906Z,121.53
2018-12-19T03:10:58.004Z,119.00
2018-12-19T03:13:32.471Z,114.67
2018-12-19T03:16:06.845Z,112.90
2018-12-19T03:18:40.996Z,117.73
2018-12-19T03:21:15.175Z,109.50
2018-12-19T03:23:49.922Z,116.57
2018-12-19T03:26:24.138Z,115.97
2018-12-19T03:28:58.833Z,113.27
2018-12-19T03:31:32.984Z,111.87
2018-12-19T03:34:07.359Z,115.63
2018-12-19T03:36:41.350Z,116.10
2018-12-19T03:39:15.857Z,111.20
2018-12-19T03:41:49.997Z,107.67
2018-12-19T03:44:23.902Z,102.90
2018-12-19T03:46:57.899Z,101.30
2018-12-19T03:49:33.139Z,101.50
2018-12-19T03:52:08.075Z,101.97
2018-12-19T03:54:42.430Z,97.47
2018-12-19T03:57:16.876Z,107.83
2018-12-19T03:59:50.959Z,94.73
2018-12-19T04:02:25.562Z,102.20
2018-12-19T04:04:59.810Z,91.03
2018-12-19T04:10:07.590Z,91.27
2018-12-19T04:12:41.496Z,103.20
2018-12-19T04:15:15.632Z,91.67
2018-12-19T04:17:49.935Z,88.97
2018-12-19T04:20:24.419Z,90.60
2018-12-19T04:22:59.318Z,89.33
2018-12-19T04:25:33.711Z,93.10
2018-12-19T04:28:08.435Z,98.03
2018-12-19T04:30:43.049Z,94.27
2018-12-19T04:33:17.487Z,89.00
2018-12-19T04:35:52.014Z,94.83
2018-12-19T04:38:26.734Z,86.53
2018-12-19T04:41:01.008Z,96.33
2018-12-19T04:43:34.967Z,95.43
2018-12-19T04:46:09.359Z,94.73
2018-12-19T04:48:43.803Z,96.30
2018-12-19T04:51:18.466Z,92.63
2018-12-19T04:53:52.614Z,92.97
2018-12-19T04:56:27.417Z,86.47
2018-12-19T04:59:02.183Z,90.27
2018-12-19T05:01:36.712Z,82.97
2018-12-19T05:04:10.887Z,98.43
2018-12-19T05:06:45.437Z,84.50
2018-12-19T05:09:19.370Z,90.20
2018-12-19T05:11:53.939Z,79.50
2018-12-19T05:14:28.753Z,89.70
2018-12-19T05:17:03.330Z,88.40
2018-12-19T05:19:37.926Z,85.50
2018-12-19T05:22:12.095Z,83.27
2018-12-19T05:24:46.734Z,88.20
2018-12-19T05:27:20.815Z,98.67
2018-12-19T05:29:54.924Z,90.83
2018-12-19T05:32:29.075Z,97.97
2018-12-19T05:35:03.538Z,88.33
2018-12-19T05:37:37.621Z,88.03
2018-12-19T05:40:18.500Z,88.93
2018-12-19T05:42:48.706Z,92.13
2018-12-19T05:45:22.984Z,87.43
2018-12-19T05:47:57.404Z,93.77
2018-12-19T05:50:31.756Z,89.23
2018-12-19T05:53:05.968Z,87.87
2018-12-19T05:55:40.126Z,88.13
2018-12-19T05:58:15.073Z,90.73
2018-12-19T06:00:49.908Z,89.63
2018-12-19T06:03:24.072Z,91.43
2018-12-19T06:05:58.248Z,87.13
2018-12-19T06:08:32.494Z,89.87
2018-12-19T06:11:06.985Z,86.83
2018-12-19T06:13:41.028Z,89.67
2018-12-19T06:16:15.263Z,88.43
2018-12-19T06:18:49.696Z,84.13
2018-12-19T06:21:23.578Z,90.57
2018-12-19T06:23:57.896Z,87.13
2018-12-19T06:26:31.791Z,88.10
2018-12-19T06:29:06.286Z,98.67
2018-12-19T06:31:40.445Z,105.00
2018-12-19T06:34:14.578Z,97.30
2018-12-19T06:36:48.662Z,96.53
2018-12-19T06:39:23.045Z,96.07
2018-12-19T06:41:57.068Z,101.93
2018-12-19T06:44:31.275Z,97.50
2018-12-19T06:47:05.615Z,95.57
2018-12-19T06:49:39.621Z,96.80
2018-12-19T06:52:14.489Z,95.07
2018-12-19T06:54:49.093Z,103.03
2018-12-19T06:57:23.102Z,99.07
2018-12-19T06:59:57.929Z,94.07
2018-12-19T07:02:31.951Z,101.80
2018-12-19T07:05:06.334Z,109.73
2018-12-19T07:07:40.138Z,100.00
2018-12-19T07:10:14.658Z,85.53
2018-12-19T07:12:49.362Z,100.70
2018-12-19T07:15:23.608Z,101.00
2018-12-19T07:17:57.990Z,98.83
2018-12-19T07:20:32.099Z,97.23
2018-12-19T07:23:06.047Z,97.77
2018-12-19T07:25:40.091Z,104.87
2018-12-19T07:28:14.095Z,120.73
2018-12-19T07:30:48.336Z,106.97
2018-12-19T07:33:22.696Z,105.40
2018-12-19T07:35:57.080Z,116.87
2018-12-19T07:38:31.196Z,87.37
2018-12-19T07:41:05.544Z,79.77
2018-12-19T07:43:39.945Z,96.03
2018-12-19T07:46:19.825Z,98.60
2018-12-19T07:48:51.206Z,104.77
2018-12-19T07:51:29.409Z,80.87
2018-12-19T07:54:03.273Z,78.90
2018-12-19T07:56:37.751Z,100.53
2018-12-19T07:59:12.131Z,104.50
2018-12-19T08:01:47.239Z,103.20
2018-12-19T08:04:22.060Z,89.47
2018-12-19T08:06:56.636Z,101.80
2018-12-19T08:09:30.927Z,102.50
2018-12-19T08:12:04.836Z,88.37
2018-12-19T08:14:39.384Z,88.33
2018-12-19T08:17:13.703Z,105.43
2018-12-19T08:19:47.900Z,92.53
2018-12-19T08:22:22.254Z,88.93
2018-12-19T08:24:56.809Z,97.53
2018-12-19T08:27:31.001Z,100.10
2018-12-19T08:30:07.308Z,81.03
2018-12-19T08:32:42.161Z,97.77
2018-12-19T08:35:16.950Z,79.23
2018-12-19T08:37:51.113Z,96.07
2018-12-19T08:40:25.205Z,68.07
2018-12-19T08:42:59.331Z,80.77
2018-12-19T08:45:34.103Z,100.17
2018-12-19T08:48:08.763Z,91.70
2018-12-19T08:50:43.026Z,87.40
2018-12-19T08:53:17.434Z,88.37
2018-12-19T08:55:52.669Z,84.63
2018-12-19T08:58:27.306Z,82.87
2018-12-19T09:01:01.624Z,89.83
2018-12-19T09:03:36.011Z,80.50
2018-12-19T09:06:10.291Z,69.33
2018-12-19T09:08:44.681Z,79.33
2018-12-19T09:11:18.771Z,65.40
2018-12-19T09:13:53.192Z,59.43
2018-12-19T09:16:27.503Z,63.73
2018-12-19T09:19:02.131Z,65.60
2018-12-19T09:21:36.473Z,61.30
2018-12-19T09:24:10.801Z,67.37
2018-12-19T09:26:44.774Z,61.17
2018-12-19T09:29:18.883Z,61.93
2018-12-19T09:31:52.887Z,52.63
2018-12-19T09:34:28.006Z,57.63
2018-12-19T09:37:02.653Z,56.70
2018-12-19T09:39:37.187Z,56.43
2018-12-19T09:42:11.395Z,51.93
2018-12-19T09:44:45.716Z,53.47
2018-12-19T09:47:20.136Z,58.40
2018-12-19T09:49:54.303Z,54.90
2018-12-19T09:52:28.769Z,64.13
2018-12-19T09:55:04.083Z,62.87
2018-12-19T09:57:38.312Z,67.07
2018-12-19T10:00:18.166Z,69.67
2018-12-19T10:02:52.760Z,62.43
2018-12-19T10:05:26.938Z,60.87
2018-12-19T10:08:01.368Z,54.23
2018-12-19T10:10:35.348Z,57.23
2018-12-19T10:13:09.429Z,60.23
2018-12-19T10:15:43.629Z,59.83
2018-12-19T10:18:17.823Z,56.43
2018-12-19T10:20:52.421Z,53.43
2018-12-19T10:23:31.063Z,54.40
2018-12-19T10:26:10.832Z,53.93
2018-12-19T10:28:44.818Z,52.93
2018-12-19T10:31:19.005Z,54.20
2018-12-19T10:33:53.588Z,51.87
2018-12-19T10:36:32.928Z,52.07
2018-12-19T10:39:15.946Z,63.87
2018-12-19T10:41:50.653Z,56.07
2018-12-19T10:44:25.051Z,48.90
2018-12-19T10:46:59.376Z,46.77
2018-12-19T10:49:33.681Z,58.33
2018-12-19T10:52:07.815Z,61.80
2018-12-19T10:54:42.192Z,57.47
2018-12-19T10:57:16.250Z,53.37
2018-12-19T10:59:50.592Z,47.70
2018-12-19T11:02:24.936Z,42.80
2018-12-19T11:04:59.130Z,46.60
2018-12-19T11:07:33.749Z,45.63
2018-12-19T11:10:09.101Z,40.57
2018-12-19T11:12:44.057Z,43.07
2018-12-19T11:15:18.484Z,46.10
2018-12-19T11:17:52.930Z,49.87
2018-12-19T11:20:27.070Z,53.77
2018-12-19T11:23:01.373Z,55.97
2018-12-19T11:25:39.333Z,50.40
2018-12-19T11:28:14.223Z,50.30
2018-12-19T11:30:48.751Z,45.83
2018-12-19T11:33:23.413Z,53.27
2018-12-19T11:35:57.651Z,46.33
2018-12-19T11:38:31.713Z,47.73
2018-12-19T11:41:06.464Z,56.40
2018-12-19T11:43:40.410Z,41.13
2018-12-19T11:46:14.651Z,44.73
2018-12-19T11:48:48.902Z,51.57
2018-12-19T11:51:23.244Z,51.67
2018-12-19T11:53:57.491Z,50.10
2018-12-19T11:56:31.935Z,49.33
2018-12-19T11:59:06.319Z,38.53
2018-12-19T12:01:41.488Z,38.83
2018-12-19T12:04:16.327Z,38.90
2018-12-19T12:06:50.323Z,47.83
2018-12-19T12:09:24.859Z,40.10
2018-12-19T12:11:59.822Z,32.43
2018-12-19T12:14:34.240Z,31.43
2018-12-19T12:17:08.888Z,33.53
2018-12-19T12:19:42.947Z,25.33
2018-12-19T12:22:17.238Z,33.37
2018-12-19T12:24:51.679Z,21.70
2018-12-19T12:27:25.966Z,24.27
2018-12-19T12:30:04.780Z,25.47
2018-12-19T12:32:39.226Z,35.27
2018-12-19T12:35:13.621Z,25.43
2018-12-19T12:37:47.650Z,47.13
2018-12-19T12:40:21.986Z,22.73
2018-12-19T12:42:56.697Z,24.90
2018-12-19T12:45:30.946Z,23.77
2018-12-19T12:48:05.123Z,19.97
2018-12-19T12:50:39.418Z,22.90
2018-12-19T12:53:14.112Z,19.90
2018-12-19T12:55:48.088Z,20.40
2018-12-19T12:58:22.394Z,18.03
2018-12-19T13:00:56.713Z,23.27
2018-12-19T13:03:31.131Z,21.37
2018-12-19T13:06:05.795Z,23.90
2018-12-19T13:08:40.361Z,21.20
2018-12-19T13:11:14.449Z,21.37
2018-12-19T13:13:48.808Z,23.17
2018-12-19T13:16:23.257Z,20.13
2018-12-19T13:18:57.975Z,23.37
2018-12-19T13:21:31.974Z,22.97
2018-12-19T13:24:06.489Z,26.73
2018-12-19T13:26:40.715Z,23.00
2018-12-19T13:29:15.565Z,35.23
2018-12-19T13:31:49.900Z,53.93
2018-12-19T13:34:24.619Z,37.90
2018-12-19T13:36:58.828Z,46.63
2018-12-19T13:39:33.006Z,44.67
2018-12-19T13:42:07.563Z,38.43
2018-12-19T13:44:41.752Z,48.40
2018-12-19T13:47:16.233Z,42.93
2018-12-19T13:49:50.577Z,44.83
2018-12-19T13:52:25.040Z,37.30
2018-12-19T13:54:59.416Z,43.07
2018-12-19T13:57:34.795Z,40.47
2018-12-19T14:00:11.648Z,48.13
2018-12-19T14:02:46.138Z,53.67
2018-12-19T14:05:20.577Z,44.70
2018-12-19T14:07:55.419Z,36.87
2018-12-19T14:10:29.942Z,31.43
2018-12-19T14:13:04.463Z,34.40
2018-12-19T14:15:38.897Z,34.70
2018-12-19T14:18:13.152Z,39.90
2018-12-19T14:20:47.458Z,36.97
2018-12-19T14:23:21.976Z,37.50
2018-12-19T14:25:56.365Z,33.73
2018-12-19T14:28:30.755Z,36.27
2018-12-19T14:31:05.550Z,35.80
2018-12-19T14:33:39.561Z,38.90
2018-12-19T14:36:13.682Z,44.90
2018-12-19T14:38:48.163Z,35.60
2018-12-19T14:41:22.937Z,38.77
2018-12-19T14:43:57.587Z,32.83
2018-12-19T14:46:31.617Z,38.70
2018-12-19T14:49:05.808Z,34.87
2018-12-19T14:51:40.776Z,36.03
2018-12-19T14:54:15.509Z,35.27
2018-12-19T14:56:50.235Z,45.13
2018-12-19T14:59:24.967Z,34.30
2018-12-19T15:01:58.974Z,33.40
2018-12-19T15:04:33.703Z,36.93
2018-12-19T15:07:07.773Z,34.73
2018-12-19T15:09:41.994Z,39.43
2018-12-19T15:12:16.947Z,42.23
2018-12-19T15:14:51.304Z,39.00
2018-12-19T15:17:25.760Z,38.07
2018-12-19T15:20:00.216Z,39.70
2018-12-19T15:22:34.807Z,40.13
2018-12-19T15:25:09.428Z,33.67
2018-12-19T15:27:44.349Z,39.60
2018-12-19T15:30:19.463Z,34.37
2018-12-19T15:32:57.856Z,37.87
2018-12-19T15:35:32.932Z,34.13
2018-12-19T15:38:06.993Z,35.93
2018-12-19T15:40:41.441Z,34.10
2018-12-19T15:43:15.935Z,37.83
2018-12-19T15:45:49.983Z,45.10
2018-12-19T15:48:24.070Z,42.83
2018-12-19T15:50:58.460Z,40.73
2018-12-19T15:53:32.747Z,37.10
2018-12-19T15:56:07.120Z,38.77
2018-12-19T15:58:41.217Z,48.67
2018-12-19T16:01:15.484Z,45.77
2018-12-19T16:03:50.281Z,46.53
2018-12-19T16:06:26.240Z,47.50
2018-12-19T16:09:01.202Z,38.20
2018-12-19T16:11:35.871Z,40.40
2018-12-19T16:14:10.620Z,44.93
2018-12-19T16:16:45.040Z,41.47
2018-12-19T16:19:19.585Z,43.67
2018-12-19T16:21:53.654Z,43.57
2018-12-19T16:24:27.905Z,60.33
2018-12-19T16:27:02.489Z,46.93
2018-12-19T16:29:36.796Z,45.17
2018-12-19T16:32:11.260Z,51.50
2018-12-19T16:34:50.336Z,43.73
2018-12-19T16:37:24.404Z,43.87
2018-12-19T16:39:58.467Z,45.50
2018-12-19T16:42:32.948Z,45.73
2018-12-19T16:45:08.209Z,48.73
2018-12-19T16:47:42.458Z,44.53
2018-12-19T16:50:16.788Z,42.80
2018-12-19T16:52:51.135Z,48.53
2018-12-19T16:55:25.265Z,48.37
2018-12-19T16:57:59.518Z,52.57
2018-12-19T17:00:33.592Z,54.93
2018-12-19T17:03:08.267Z,53.30
2018-12-19T17:05:42.621Z,47.87
2018-12-19T17:08:17.241Z,50.70
2018-12-19T17:10:52.058Z,53.07
2018-12-19T17:13:26.428Z,51.93
2018-12-19T17:16:01.149Z,54.77
2018-12-19T17:18:45.334Z,63.93
2018-12-19T17:21:22.974Z,77.97
2018-12-19T17:23:59.544Z,59.03
2018-12-19T17:26:33.971Z,54.73
2018-12-19T17:29:08.574Z,59.07
2018-12-19T17:31:50.975Z,64.23
2018-12-19T17:34:24.985Z,75.30
2018-12-19T17:36:59.089Z,83.50
2018-12-19T17:39:33.587Z,63.50
2018-12-19T17:42:08.151Z,82.77
2018-12-19T17:44:42.703Z,80.43
2018-12-19T17:47:17.296Z,76.80
2018-12-19T17:49:51.682Z,82.53
2018-12-19T17:52:25.435Z,70.53
2018-12-19T17:54:59.837Z,69.87
2018-12-19T17:57:33.672Z,77.40
2018-12-19T18:00:10.141Z,84.07
2018-12-19T18:02:44.461Z,78.50
2018-12-19T18:05:19.019Z,95.23
2018-12-19T18:07:53.208Z,85.23
2018-12-19T18:10:27.508Z,89.10
2018-12-19T18:13:06.160Z,74.83
2018-12-19T18:15:38.228Z,72.87
2018-12-19T18:18:13.051Z,78.73
2018-12-19T18:20:47.178Z,75.23
2018-12-19T18:23:21.759Z,94.13
2018-12-19T18:25:55.979Z,88.07
2018-12-19T18:28:30.845Z,88.67
2018-12-19T18:31:05.060Z,86.40
2018-12-19T18:33:39.299Z,86.30
2018-12-19T18:36:13.980Z,85.43
2018-12-19T18:38:51.972Z,78.60
2018-12-19T18:41:26.182Z,96.57
2018-12-19T18:44:00.477Z,87.53
2018-12-19T18:46:36.330Z,90.20
2018-12-19T18:49:14.565Z,83.63
2018-12-19T18:51:49.021Z,82.23
2018-12-19T18:54:24.911Z,85.47
2018-12-19T18:56:59.713Z,111.03
2018-12-19T18:59:34.715Z,95.83
2018-12-19T19:02:08.956Z,116.03
2018-12-19T19:04:42.975Z,101.90
2018-12-19T19:07:17.327Z,102.87
2018-12-19T19:09:52.033Z,107.50
2018-12-19T19:12:26.687Z,101.23
2018-12-19T19:15:01.409Z,96.03
2018-12-19T19:17:35.413Z,106.70
2018-12-19T19:20:09.435Z,94.53
2018-12-19T19:22:43.921Z,103.67
2018-12-19T19:25:18.415Z,107.67
2018-12-19T19:27:52.520Z,110.37
2018-12-19T19:30:26.724Z,104.63
2018-12-19T19:33:01.283Z,106.80
2018-12-19T19:35:35.772Z,114.33
2018-12-19T19:38:10.086Z,109.30
2018-12-19T19:40:44.054Z,112.50
2018-12-19T19:43:18.671Z,106.77
2018-12-19T19:45:53.511Z,81.37
2018-12-19T19:48:28.839Z,80.73
2018-12-19T19:51:03.333Z,95.23
2018-12-19T19:53:38.410Z,101.97
2018-12-19T19:56:12.427Z,98.70
2018-12-19T19:58:46.797Z,95.97
2018-12-19T20:01:21.813Z,111.93
2018-12-19T20:03:55.882Z,117.77
2018-12-19T20:06:30.445Z,121.80
2018-12-19T20:09:06.354Z,117.47
2018-12-19T20:11:40.931Z,100.00
2018-12-19T20:14:15.446Z,102.40
2018-12-19T20:16:55.374Z,137.17
2018-12-19T20:19:29.558Z,118.90
2018-12-19T20:22:03.943Z,121.80
2018-12-19T20:24:38.124Z,96.37
2018-12-19T20:27:16.748Z,102.57
2018-12-19T20:29:50.648Z,97.23
2018-12-19T20:32:24.911Z,92.93
2018-12-19T20:34:59.364Z,116.53
2018-12-19T20:37:33.708Z,106.00
2018-12-19T20:40:07.837Z,98.80
2018-12-19T20:42:42.086Z,106.80
2018-12-19T20:45:16.423Z,122.73
2018-12-19T20:47:50.293Z,106.33
2018-12-19T20:50:24.605Z,91.73
2018-12-19T20:52:59.113Z,185.20
2018-12-19T20:55:33.200Z,115.60
2018-12-19T20:58:07.615Z,107.30
2018-12-19T21:00:42.112Z,99.33
2018-12-19T21:03:16.607Z,97.30
2018-12-19T21:05:50.665Z,116.23
2018-12-19T21:08:24.932Z,104.20
2018-12-19T21:10:59.071Z,105.80
2018-12-19T21:13:33.286Z,105.50
2018-12-19T21:16:08.744Z,110.00
2018-12-19T21:18:51.746Z,102.00
2018-12-19T21:21:26.505Z,104.17
2018-12-19T21:24:00.754Z,93.27
2018-12-19T21:26:35.338Z,109.43
2018-12-19T21:29:09.590Z,100.67
2018-12-19T21:31:43.636Z,122.43
2018-12-19T21:34:18.083Z,112.47
2018-12-19T21:36:52.310Z,97.80
2018-12-19T21:39:26.586Z,95.97
2018-12-19T21:42:01.041Z,94.60
2018-12-19T21:44:35.128Z,99.60
2018-12-19T21:47:09.847Z,115.07
2018-12-19T21:49:44.374Z,121.23
2018-12-19T21:52:18.289Z,118.77
2018-12-19T21:54:52.425Z,105.10
2018-12-19T21:57:26.551Z,98.47
2018-12-19T22:00:00.757Z,99.77
2018-12-19T22:02:35.416Z,103.67
2018-12-19T22:05:09.868Z,124.33
2018-12-19T22:07:44.808Z,109.63
2018-12-19T22:10:19.584Z,106.40
2018-12-19T22:12:53.587Z,104.77
2018-12-19T22:15:27.833Z,98.23
2018-12-19T22:18:06.890Z,93.97
2018-12-19T22:20:41.793Z,103.40
2018-12-19T22:23:16.283Z,98.40
2018-12-19T22:25:50.347Z,105.53
2018-12-19T22:28:24.536Z,106.20
2018-12-19T22:30:58.786Z,101.30
2018-12-19T22:33:33.351Z,99.07
2018-12-19T22:36:07.750Z,97.97
2018-12-19T22:38:41.952Z,85.37
2018-12-19T22:41:16.287Z,76.80
2018-12-19T22:43:50.457Z,92.30
2018-12-19T22:46:24.850Z,79.97
2018-12-19T22:48:59.011Z,72.50
2018-12-19T22:51:33.413Z,85.13
2018-12-19T22:54:07.787Z,84.97
2018-12-19T22:56:41.943Z,115.33
2018-12-19T22:59:16.499Z,112.80
2018-12-19T23:01:55.698Z,104.73
2018-12-19T23:04:30.481Z,109.37
2018-12-19T23:07:05.063Z,91.87
2018-12-19T23:09:39.607Z,106.27
2018-12-19T23:12:14.171Z,122.27
2018-12-19T23:14:49.047Z,89.27
2018-12-19T23:17:28.050Z,100.67
2018-12-19T23:20:02.008Z,97.40
2018-12-19T23:22:36.474Z,95.80
2018-12-19T23:25:11.327Z,82.40
2018-12-19T23:27:45.484Z,89.83
2018-12-19T23:30:20.213Z,82.40
2018-12-19T23:32:54.297Z,79.40
2018-12-19T23:35:28.348Z,79.17
2018-12-19T23:38:02.376Z,81.67
2018-12-19T23:40:36.870Z,72.13
2018-12-19T23:43:11.057Z,85.20
2018-12-19T23:45:45.476Z,91.07
2018-12-19T23:48:23.655Z,72.77
2018-12-19T23:50:58.308Z,81.93
2018-12-19T23:53:32.225Z,74.00
2018-12-19T23:56:06.949Z,84.40
2018-12-19T23:58:41.251Z,83.53
